Terminal Aerodrome Forecast
Issued by NWS Miami, FL

Current Version | Previous Version | Text Only | Print | Product List | Glossary On
Versions: 1 2 3 4 5 6 7 8 9 10 11 12 13 14 15 16 17 18 19 20 21 22 23 24 25 26 27 28 29 30
000
FTUS42 KMFL 220858 AAA
TAFFLL
TAF AMD
KFLL 220858Z 2209/2306 VRB05KT P6SM VCSH SCT025 SCT250
     FM221300 07010KT P6SM VCSH SCT035 BKN050
     FM230000 06005KT P6SM VCSH SCT025 BKN050=

USA.gov is the U.S. government's official web portal to all federal, state and local government web resources and services.